チタ の空港の天気 - METARとTAF

チタ・カダラ空港 ( UIAA / HTA ) - ロシア チタ
飛行場実況気象(Metar)
観測時間04/21 09:00 YAKT (04/21 00:00 UTC)
風向・風速不定 1m/s
視程10km以上
天気現象
なし
気温-1℃
湿度55%
気圧1024hPa
METARUIAA 210000Z VRB01MPS 9999 NSC M01/M09 Q1024 R29/70D NOSIG RMK QFE709/0945
過去の天気等 Google飛行場航空写真 Wunderground天気予報

過去48時間のMETAR

飛行場予報(TAF)
発表時間: 4/21 08:00 YAKT (4/20 23:00 UTC)
予報対象時間: 21日9時 YAKT ~ 22日9時 YAKT
風向・風速北東 3m/s 瞬間風速 8m/s
視程10km以上
全天の4割程度の積乱雲 雲底高度 1,220m
TAF UIAA 202300Z 2100/2124 04003G08MPS 9999 SCT040CB